Thursday, September 20, 2018, 10:11 PM EDT
Back to Local

KOWD, Norwood Memorial Airport

Location: Norwood, MA, United States Lat: 42.183
Local Time: 10:11 PM EDT ( 2:11 GMT) Lon: -71.167
Time Zone: US/Eastern Elev: 49 ft

Show me the last for .
Show Coded

Time T Td Feel RH Dir Speed Gust Alt SLP Vis Weather Sky Remarks
2018-09-20 21:53 62 57 - 83 - Calm - 30.29 30.29 10 BKN050 None
2018-09-20 20:53 63 57 - 80 90° 3 - 30.29 30.29 10 OVC050 None
2018-09-20 19:53 63 58 - 83 40° 3 - 30.28 30.27 10 OVC048 6-hr Min Temp (8pm): 63.0°F
6-hr Max Temp (8pm): 68.0°F
2018-09-20 18:53 64 57 - 77 80° 5 - 30.27 30.27 10 OVC047 None
2018-09-20 17:53 65 56 - 72 100° 8 - 30.25 30.25 10 FEW021 None
2018-09-20 17:10 65 56 - 72 60° 7 - 30.24 - 10 FEW023 BKN030 None
2018-09-20 16:53 66 56 - 69 50° 7 - 30.25 30.24 10 BKN026 None
2018-09-20 16:00 66 56 - 69 70° 9 - 30.24 - 10 BKN022 BKN050 None
2018-09-20 15:53 67 56 - 67 80° 9 - 30.24 30.24 10 SCT022 BKN050 None
2018-09-20 14:53 67 57 - 70 50° 7 - 30.24 30.24 10 SCT020 SCT025 OVC050 None
2018-09-20 14:32 67 57 - 70 40° 7 - 30.24 - 10 BKN021 BKN026 OVC050 None
2018-09-20 13:53 67 57 - 70 70° 9 - 30.25 30.24 10 SCT021 OVC046 6-hr Precip Total (2pm): 0.00"
6-hr Min Temp (2pm): 63.0°F
6-hr Max Temp (2pm): 69.1°F
2018-09-20 13:44 67 57 - 70 50° 8 - 30.25 - 10 BKN019 OVC044 None
2018-09-20 13:37 67 57 - 70 40° 9 - 30.25 - 10 SCT021 OVC042 None
2018-09-20 13:26 66 57 - 72 40° 8 - 30.25 - 10 BKN019 OVC040 None
2018-09-20 12:53 65 57 - 75 50° 7 - 30.26 30.26 10 FEW019 SCT025 OVC040 1-hr Precip Total: Trace
2018-09-20 12:49 64 57 - 77 50° 7 - 30.26 - 10 FEW019 BKN024 OVC040 1-hr Precip Total: Trace
2018-09-20 12:16 65 57 - 75 40° 8 - 30.27 - 10 FEW019 SCT026 OVC035 1-hr Precip Total: Trace
2018-09-20 11:53 65 57 - 75 60° 9 - 30.27 30.27 10 OVC021 None
2018-09-20 11:39 66 57 - 72 50° 9 - 30.26 - 10 BKN022 BKN027 OVC044 None
2018-09-20 11:16 67 57 - 70 40° 8 - 30.25 - 10 SCT022 OVC045 None
2018-09-20 10:53 67 56 - 67 360° 6 - 30.25 30.25 10 SCT021 BKN029 None
2018-09-20 10:05 67 58 - 72 50° 8 - 30.25 - 10 SCT021 BKN029 None
2018-09-20 09:53 67 58 - 72 60° 12 - 30.24 30.24 10 SCT026 BKN031 None
2018-09-20 09:43 66 57 - 72 60° 9 - 30.24 - 10 FEW022 BKN031 None
2018-09-20 08:53 65 58 - 78 Variable 6 - 30.21 30.21 10 FEW016 OVC026 None
2018-09-20 08:27 64 58 - 80 10° 7 - 30.21 - 10 FEW015 BKN027 None
2018-09-20 07:53 64 58 - 80 20° 7 - 30.19 30.19 10 SCT026 BKN031 6-hr Min Temp (8am): 60.1°F
6-hr Max Temp (8am): 64.0°F
2018-09-20 06:53 62 58 - 86 40° 7 - 30.17 30.16 10 OVC023 None
2018-09-20 06:08 61 58 - 89 10° 3 - 30.14 - 10 OVC015 None
2018-09-20 05:53 61 57 - 86 40° 5 - 30.14 30.14 10 BKN014 None
2018-09-20 05:42 61 57 - 86 350° 3 - 30.14 - 10 BKN015 None
2018-09-20 04:53 61 57 - 86 360° 5 - 30.13 30.12 10 CLR None
2018-09-20 04:13 60 57 - 89 40° 5 - 30.12 - 10 FEW015 SCT023 SCT055 None
2018-09-20 03:53 61 57 - 86 350° 3 - 30.13 30.12 10 BKN017 BKN024 BKN029 None
2018-09-20 02:53 61 57 - 86 - Calm - 30.12 30.11 10 BKN017 BKN025 None
2018-09-20 01:53 61 56 - 83 340° 3 - 30.11 30.11 10 SCT055 6-hr Min Temp (2am): 61.0°F
6-hr Max Temp (2am): 64.0°F
2018-09-20 01:27 62 56 - 80 20° 5 - 30.11 - 10 SCT029 SCT055 None
2018-09-20 00:53 63 56 - 77 10° 5 - 30.11 30.11 10 OVC028 24-hr Min Temp (1am): 61.0°F
24-hr Max Temp (1am): 71.1°F
2018-09-19 23:53 63 56 - 77 350° 6 - 30.09 30.09 10 BKN025 OVC031 None
2018-09-19 23:18 63 56 - 77 40° 5 - 30.08 - 10 BKN026 BKN049 None
2018-09-19 23:09 62 55 - 77 20° 3 - 30.08 - 10 SCT026 BKN050 None
2018-09-19 22:53 63 56 - 77 50° 8 - 30.08 30.07 10 BKN026 OVC050 None
2018-09-19 22:21 63 56 - 77 30° 9 - 30.08 - 10 BKN025 OVC030 None

Support USWX by starting your Amazon purchase here.